createdAt,value
2022-10-14T00:00:08.554Z,6.00
2022-10-14T00:05:19.095Z,5.50
2022-10-14T00:10:26.390Z,5.60
2022-10-14T00:15:33.429Z,6.60
2022-10-14T00:20:40.937Z,6.00
2022-10-14T00:25:48.480Z,5.40
2022-10-14T00:31:02.666Z,5.50
2022-10-14T00:36:13.687Z,6.40
2022-10-14T00:41:23.889Z,5.90
2022-10-14T00:46:32.747Z,6.10
2022-10-14T00:51:44.442Z,5.60
2022-10-14T00:56:52.300Z,6.30
2022-10-14T01:01:59.354Z,6.80
2022-10-14T01:07:15.066Z,5.30
2022-10-14T01:12:33.172Z,5.90
2022-10-14T01:17:53.411Z,6.00
2022-10-14T01:23:16.893Z,5.60
2022-10-14T01:28:31.968Z,5.60
2022-10-14T01:33:42.929Z,6.00
2022-10-14T01:38:55.796Z,5.50
2022-10-14T01:44:08.971Z,6.20
2022-10-14T01:49:24.892Z,5.40
2022-10-14T01:54:36.911Z,5.60
2022-10-14T01:59:45.853Z,5.70
2022-10-14T02:04:53.406Z,5.80
2022-10-14T02:10:15.531Z,5.80
2022-10-14T02:15:30.175Z,5.70
2022-10-14T02:20:43.499Z,5.80
2022-10-14T02:25:52.348Z,5.90
2022-10-14T02:31:02.103Z,6.30
2022-10-14T02:36:13.401Z,6.00
2022-10-14T02:41:24.651Z,6.50
2022-10-14T02:46:31.956Z,6.80
2022-10-14T02:51:39.547Z,5.90
2022-10-14T02:56:50.040Z,5.80
2022-10-14T03:01:57.229Z,6.30
2022-10-14T03:07:05.134Z,5.70
2022-10-14T03:12:14.221Z,5.90
2022-10-14T03:17:21.613Z,5.20
2022-10-14T03:22:29.454Z,5.50
2022-10-14T03:27:37.067Z,5.60
2022-10-14T03:32:47.709Z,5.70
2022-10-14T03:38:07.183Z,6.20
2022-10-14T03:43:14.839Z,6.10
2022-10-14T03:48:28.474Z,6.20
2022-10-14T03:53:37.692Z,6.30
2022-10-14T03:58:45.085Z,6.00
2022-10-14T04:03:53.550Z,6.50
2022-10-14T04:09:01.214Z,7.00
2022-10-14T04:14:13.794Z,6.80
2022-10-14T04:19:27.408Z,6.90
2022-10-14T04:24:34.571Z,6.50
2022-10-14T04:29:42.274Z,6.20
2022-10-14T04:34:55.332Z,6.00
2022-10-14T04:40:05.252Z,6.20
2022-10-14T04:45:13.994Z,5.40
2022-10-14T04:50:29.471Z,6.30
2022-10-14T04:55:55.034Z,6.10
2022-10-14T05:01:02.304Z,5.90
2022-10-14T05:06:14.217Z,6.30
2022-10-14T05:11:23.365Z,6.00
2022-10-14T05:16:33.386Z,5.80
2022-10-14T05:21:40.625Z,6.60
2022-10-14T05:26:54.347Z,6.50
2022-10-14T05:32:01.726Z,6.50
2022-10-14T05:37:18.885Z,7.20
2022-10-14T05:42:28.492Z,7.30
2022-10-14T05:47:37.921Z,6.60
2022-10-14T05:52:53.284Z,6.90
2022-10-14T05:58:05.565Z,6.90
2022-10-14T06:03:16.432Z,7.20
2022-10-14T06:08:24.191Z,7.00
2022-10-14T06:13:31.386Z,7.30
2022-10-14T06:18:39.565Z,7.50
2022-10-14T06:23:46.534Z,7.60
2022-10-14T06:28:53.956Z,7.70
2022-10-14T06:34:01.456Z,7.30
2022-10-14T06:39:08.859Z,7.00
2022-10-14T06:44:17.100Z,7.60
2022-10-14T06:49:24.218Z,8.50
2022-10-14T06:54:34.455Z,10.50
2022-10-14T06:59:44.712Z,9.30
2022-10-14T07:04:52.470Z,8.30
2022-10-14T07:10:00.089Z,8.50
2022-10-14T07:15:08.251Z,8.70
2022-10-14T07:20:16.234Z,8.00
2022-10-14T07:25:23.412Z,8.20
2022-10-14T07:30:30.905Z,8.10
2022-10-14T07:35:38.968Z,8.30
2022-10-14T07:40:45.920Z,8.10
2022-10-14T07:46:00.549Z,7.90
2022-10-14T07:51:07.875Z,7.90
2022-10-14T07:56:15.126Z,8.80
2022-10-14T08:01:24.621Z,7.70
2022-10-14T08:06:32.668Z,8.20
2022-10-14T08:11:40.334Z,8.40
2022-10-14T08:16:47.720Z,8.60
2022-10-14T08:21:55.164Z,9.10
2022-10-14T08:27:02.174Z,8.80
2022-10-14T08:32:09.702Z,8.60
2022-10-14T08:37:16.773Z,9.30
2022-10-14T08:42:37.271Z,8.80
2022-10-14T08:47:47.248Z,9.10
2022-10-14T08:52:58.505Z,9.60
2022-10-14T08:58:14.217Z,10.30
2022-10-14T09:03:27.242Z,10.60
2022-10-14T09:08:38.839Z,10.20
2022-10-14T09:13:48.904Z,9.60
2022-10-14T09:18:58.258Z,9.90
2022-10-14T09:24:13.285Z,11.00
2022-10-14T09:29:27.779Z,10.00
2022-10-14T09:34:39.854Z,9.80
2022-10-14T09:39:47.724Z,11.00
2022-10-14T09:45:14.240Z,10.90
2022-10-14T09:50:32.588Z,13.10
2022-10-14T09:55:48.595Z,11.00
2022-10-14T10:01:00.597Z,10.70
2022-10-14T10:06:10.962Z,10.80
2022-10-14T10:11:28.600Z,10.90
2022-10-14T10:16:36.306Z,10.30
2022-10-14T10:21:43.537Z,11.90
2022-10-14T10:26:52.276Z,12.30
2022-10-14T10:32:13.926Z,12.70
2022-10-14T10:37:28.518Z,11.80
2022-10-14T10:42:44.533Z,11.10
2022-10-14T10:47:57.882Z,11.50
2022-10-14T10:53:23.778Z,10.50
2022-10-14T10:58:44.615Z,10.00
2022-10-14T11:04:05.011Z,10.40
2022-10-14T11:09:38.778Z,11.10
2022-10-14T11:20:49.030Z,10.30
2022-10-14T11:26:02.590Z,10.00
2022-10-14T11:31:25.854Z,10.20
2022-10-14T11:36:41.855Z,10.10
2022-10-14T11:42:05.407Z,10.70
2022-10-14T11:47:21.812Z,10.70
2022-10-14T11:52:33.322Z,10.20
2022-10-14T11:57:46.412Z,12.10
2022-10-14T12:02:59.381Z,11.00
2022-10-14T12:08:17.830Z,11.40
2022-10-14T12:13:32.027Z,10.30
2022-10-14T12:18:40.958Z,10.10
2022-10-14T12:23:51.708Z,10.10
2022-10-14T12:29:01.483Z,9.00
2022-10-14T12:39:45.774Z,9.10
2022-10-14T12:44:56.550Z,8.00
2022-10-14T12:50:08.452Z,8.30
2022-10-14T13:00:38.229Z,9.90
2022-10-14T13:05:46.479Z,8.70
2022-10-14T13:11:12.739Z,8.90
2022-10-14T13:16:50.622Z,10.00
2022-10-14T13:21:58.089Z,10.20
2022-10-14T13:27:19.550Z,10.50
2022-10-14T13:32:36.742Z,9.70
2022-10-14T13:37:47.129Z,9.40
2022-10-14T13:42:58.579Z,9.50
2022-10-14T13:48:06.861Z,9.60
2022-10-14T13:53:20.081Z,9.80
2022-10-14T13:58:27.484Z,9.80
2022-10-14T14:03:37.174Z,9.60
2022-10-14T14:08:50.183Z,9.30
2022-10-14T14:14:01.814Z,10.00
2022-10-14T14:19:19.542Z,9.80
2022-10-14T14:24:29.999Z,9.80
2022-10-14T14:29:39.410Z,10.10
2022-10-14T14:34:49.015Z,9.60
2022-10-14T14:40:04.553Z,9.70
2022-10-14T14:45:20.021Z,9.80
2022-10-14T14:50:33.454Z,9.30
2022-10-14T15:00:50.436Z,9.90
2022-10-14T15:06:01.961Z,10.30
2022-10-14T15:11:09.586Z,10.60
2022-10-14T15:16:34.014Z,11.70
2022-10-14T15:21:42.366Z,23.70
2022-10-14T15:26:53.522Z,30.10
2022-10-14T15:32:17.061Z,28.20
2022-10-14T15:37:24.013Z,27.20
2022-10-14T15:42:31.145Z,27.90
2022-10-14T15:47:38.839Z,27.80
2022-10-14T15:52:46.844Z,27.30
2022-10-14T15:57:54.282Z,22.20
2022-10-14T16:03:01.541Z,19.10
2022-10-14T16:08:13.105Z,20.80
2022-10-14T16:13:20.093Z,19.50
2022-10-14T16:18:27.261Z,21.30
2022-10-14T16:23:38.034Z,20.00
2022-10-14T16:28:45.180Z,19.60
2022-10-14T16:33:56.246Z,18.80
2022-10-14T16:39:05.043Z,17.00
2022-10-14T16:44:25.016Z,16.20
2022-10-14T16:49:32.434Z,17.50
2022-10-14T16:54:39.495Z,16.10
2022-10-14T16:59:46.977Z,13.30
2022-10-14T17:04:54.105Z,13.00
2022-10-14T17:10:01.169Z,12.10
2022-10-14T17:15:09.428Z,12.20
2022-10-14T17:20:16.964Z,13.20
2022-10-14T17:25:24.151Z,17.70
2022-10-14T17:30:31.432Z,19.10
2022-10-14T17:35:38.606Z,18.90
2022-10-14T17:40:44.939Z,18.90
2022-10-14T17:45:51.875Z,26.90
2022-10-14T17:51:01.950Z,18.90
2022-10-14T17:56:10.735Z,18.80
2022-10-14T18:01:19.305Z,17.60
2022-10-14T18:06:30.418Z,16.80
2022-10-14T18:12:07.056Z,16.70
2022-10-14T18:17:08.634Z,16.30
2022-10-14T18:22:16.555Z,15.90
2022-10-14T18:27:25.668Z,14.30
2022-10-14T18:32:32.864Z,16.00
2022-10-14T18:37:39.783Z,15.90
2022-10-14T18:42:46.943Z,15.90
2022-10-14T18:47:53.927Z,15.10
2022-10-14T18:53:00.909Z,14.10
2022-10-14T18:58:07.994Z,13.50
2022-10-14T19:03:15.103Z,13.90
2022-10-14T19:08:23.232Z,15.20
2022-10-14T19:13:30.243Z,14.60
2022-10-14T19:18:37.423Z,14.40
2022-10-14T19:23:45.425Z,15.00
2022-10-14T19:28:53.766Z,14.80
2022-10-14T19:34:02.289Z,15.20
2022-10-14T19:39:11.544Z,15.30
2022-10-14T19:44:19.223Z,16.20
2022-10-14T19:49:26.558Z,16.60
2022-10-14T19:54:33.529Z,15.50
2022-10-14T19:59:40.769Z,15.00
2022-10-14T20:04:47.975Z,14.70
2022-10-14T20:09:56.303Z,15.20
2022-10-14T20:15:07.653Z,15.90
2022-10-14T20:20:16.225Z,15.70
2022-10-14T20:25:23.722Z,16.70
2022-10-14T20:30:31.389Z,17.80
2022-10-14T20:35:38.564Z,16.80
2022-10-14T20:40:45.613Z,16.50
2022-10-14T20:45:53.010Z,17.70
2022-10-14T20:51:00.427Z,16.90
2022-10-14T20:56:09.409Z,17.70
2022-10-14T21:01:18.464Z,19.00
2022-10-14T21:06:26.509Z,19.30
2022-10-14T21:11:33.805Z,18.20
2022-10-14T21:16:42.591Z,19.30
2022-10-14T21:21:50.739Z,19.70
2022-10-14T21:26:57.791Z,19.00
2022-10-14T21:32:05.536Z,19.60
2022-10-14T21:37:12.464Z,20.10
2022-10-14T21:42:19.639Z,21.30
2022-10-14T21:47:26.764Z,20.00
2022-10-14T21:52:33.773Z,20.00
2022-10-14T21:57:40.734Z,20.20
2022-10-14T22:02:48.265Z,20.90
2022-10-14T22:07:55.153Z,19.30
2022-10-14T22:13:02.611Z,19.80
2022-10-14T22:18:10.296Z,20.60
2022-10-14T22:23:17.492Z,20.60
2022-10-14T22:28:24.892Z,20.60
2022-10-14T22:33:32.023Z,20.30
2022-10-14T22:38:39.675Z,21.50
2022-10-14T22:43:51.759Z,20.50
2022-10-14T22:49:01.193Z,21.30
2022-10-14T22:54:08.738Z,20.90
2022-10-14T22:59:16.153Z,21.60
2022-10-14T23:04:23.086Z,21.60
2022-10-14T23:09:30.404Z,20.60
2022-10-14T23:14:37.420Z,20.90
2022-10-14T23:19:44.634Z,21.40
2022-10-14T23:24:51.814Z,21.10
2022-10-14T23:29:59.193Z,22.20
2022-10-14T23:35:07.764Z,20.60
2022-10-14T23:40:16.295Z,21.40
2022-10-14T23:45:23.155Z,21.10
2022-10-14T23:50:30.216Z,22.30
2022-10-14T23:55:37.456Z,22.10
